createdAt,value
2022-09-15T00:00:00.140Z,9.77
2022-09-15T00:02:29.982Z,8.95
2022-09-15T00:04:59.847Z,9.45
2022-09-15T00:07:31.379Z,8.50
2022-09-15T00:10:01.573Z,8.93
2022-09-15T00:12:31.531Z,9.57
2022-09-15T00:15:01.570Z,9.38
2022-09-15T00:17:31.621Z,9.07
2022-09-15T00:20:01.554Z,8.50
2022-09-15T00:22:32.748Z,9.27
2022-09-15T00:25:02.609Z,9.15
2022-09-15T00:27:50.517Z,8.82
2022-09-15T00:30:20.419Z,9.43
2022-09-15T00:32:50.174Z,9.82
2022-09-15T00:35:20.060Z,9.57
2022-09-15T00:37:51.203Z,9.15
2022-09-15T00:40:21.152Z,9.27
2022-09-15T00:42:51.052Z,9.48
2022-09-15T00:45:21.121Z,9.07
2022-09-15T00:47:51.105Z,9.05
2022-09-15T00:50:22.097Z,8.32
2022-09-15T00:52:58.118Z,8.02
2022-09-15T00:55:32.487Z,8.50
2022-09-15T00:58:06.606Z,8.70
2022-09-15T01:00:36.833Z,8.70
2022-09-15T01:03:06.673Z,9.23
2022-09-15T01:05:40.649Z,9.30
2022-09-15T01:08:20.319Z,8.20
2022-09-15T01:10:52.115Z,8.40
2022-09-15T01:13:21.923Z,8.73
2022-09-15T01:16:01.658Z,8.40
2022-09-15T01:18:42.657Z,8.57
2022-09-15T01:21:25.584Z,8.48
2022-09-15T01:24:30.581Z,8.75
2022-09-15T01:27:41.760Z,8.32
2022-09-15T01:30:20.618Z,8.73
2022-09-15T01:33:04.893Z,7.50
2022-09-15T01:35:54.345Z,8.10
2022-09-15T01:38:34.195Z,7.95
2022-09-15T01:41:09.397Z,8.32
2022-09-15T01:43:45.361Z,7.30
2022-09-15T01:46:18.537Z,8.02
2022-09-15T01:48:50.504Z,8.93
2022-09-15T01:51:21.025Z,8.23
2022-09-15T01:53:53.718Z,8.07
2022-09-15T01:58:54.231Z,8.23
2022-09-15T02:01:32.171Z,7.78
2022-09-15T02:04:10.191Z,9.05
2022-09-15T02:06:44.893Z,8.43
2022-09-15T02:09:20.267Z,7.97
2022-09-15T02:12:00.067Z,8.82
2022-09-15T02:14:39.900Z,8.38
2022-09-15T02:17:15.217Z,8.48
2022-09-15T02:19:51.122Z,9.23
2022-09-15T02:22:26.248Z,9.75
2022-09-15T02:25:02.246Z,8.82
2022-09-15T02:27:39.015Z,8.40
2022-09-15T02:30:12.859Z,7.20
2022-09-15T02:32:54.197Z,8.07
2022-09-15T02:35:25.688Z,8.52
2022-09-15T02:37:57.492Z,8.38
2022-09-15T02:40:30.130Z,9.05
2022-09-15T02:43:02.195Z,8.77
2022-09-15T02:45:33.261Z,8.38
2022-09-15T02:48:05.403Z,7.78
2022-09-15T02:50:35.533Z,7.30
2022-09-15T02:53:05.692Z,7.40
2022-09-15T02:55:35.468Z,7.57
2022-09-15T02:58:05.604Z,6.72
2022-09-15T03:00:38.593Z,6.35
2022-09-15T03:03:10.131Z,6.38
2022-09-15T03:05:40.025Z,5.90
2022-09-15T03:08:11.171Z,5.88
2022-09-15T03:10:41.012Z,7.10
2022-09-15T03:13:10.829Z,7.10
2022-09-15T03:15:41.002Z,7.43
2022-09-15T03:18:13.216Z,8.35
2022-09-15T03:20:43.113Z,8.18
2022-09-15T03:23:12.933Z,7.55
2022-09-15T03:25:42.653Z,7.38
2022-09-15T03:28:12.553Z,7.88
2022-09-15T03:30:42.818Z,7.47
2022-09-15T03:33:13.934Z,7.80
2022-09-15T03:35:43.757Z,8.10
2022-09-15T03:38:13.679Z,8.43
2022-09-15T03:40:44.087Z,7.63
2022-09-15T03:43:18.562Z,7.82
2022-09-15T03:45:48.975Z,7.10
2022-09-15T03:48:20.126Z,7.30
2022-09-15T03:50:50.143Z,6.97
2022-09-15T03:53:20.301Z,7.20
2022-09-15T03:55:50.292Z,6.97
2022-09-15T03:58:20.636Z,6.63
2022-09-15T04:00:50.439Z,7.28
2022-09-15T04:03:21.849Z,7.15
2022-09-15T04:05:51.626Z,7.78
2022-09-15T04:08:21.388Z,10.30
2022-09-15T04:10:51.276Z,9.40
2022-09-15T04:13:22.642Z,7.38
2022-09-15T04:16:06.526Z,8.32
2022-09-15T04:18:38.078Z,7.30
2022-09-15T04:21:10.081Z,8.40
2022-09-15T04:23:39.999Z,8.07
2022-09-15T04:26:12.918Z,8.15
2022-09-15T04:28:42.709Z,8.87
2022-09-15T04:31:14.671Z,9.48
2022-09-15T04:33:46.629Z,9.60
2022-09-15T04:36:19.162Z,8.95
2022-09-15T04:38:50.596Z,8.35
2022-09-15T04:41:20.917Z,8.35
2022-09-15T04:43:51.127Z,8.20
2022-09-15T04:46:21.763Z,8.48
2022-09-15T04:48:54.022Z,8.65
2022-09-15T04:51:24.332Z,9.32
2022-09-15T04:53:54.267Z,9.32
2022-09-15T04:56:25.738Z,7.53
2022-09-15T04:59:03.275Z,8.13
2022-09-15T05:01:36.236Z,8.77
2022-09-15T05:04:07.548Z,9.43
2022-09-15T05:06:38.335Z,7.65
2022-09-15T05:09:10.625Z,8.07
2022-09-15T05:11:41.013Z,8.40
2022-09-15T05:14:11.584Z,8.40
2022-09-15T05:16:41.463Z,8.60
2022-09-15T05:19:14.639Z,8.27
2022-09-15T05:21:44.905Z,8.63
2022-09-15T05:24:14.911Z,9.95
2022-09-15T05:26:44.738Z,9.70
2022-09-15T05:29:14.864Z,8.38
2022-09-15T05:31:44.965Z,8.23
2022-09-15T05:34:16.524Z,8.68
2022-09-15T05:36:46.273Z,9.95
2022-09-15T05:39:16.385Z,11.57
2022-09-15T05:41:46.318Z,9.93
2022-09-15T05:44:16.345Z,8.65
2022-09-15T05:46:46.229Z,7.82
2022-09-15T05:49:17.720Z,9.27
2022-09-15T05:51:47.739Z,8.50
2022-09-15T05:54:17.567Z,7.57
2022-09-15T05:56:47.784Z,9.32
2022-09-15T05:59:17.694Z,9.23
2022-09-15T06:01:47.536Z,8.80
2022-09-15T06:04:19.048Z,7.68
2022-09-15T06:06:48.732Z,7.88
2022-09-15T06:09:18.675Z,7.60
2022-09-15T06:11:48.613Z,7.13
2022-09-15T06:14:18.389Z,7.18
2022-09-15T06:16:48.239Z,7.28
2022-09-15T06:19:19.688Z,6.90
2022-09-15T06:21:49.822Z,6.82
2022-09-15T06:24:19.796Z,7.40
2022-09-15T06:26:49.581Z,7.35
2022-09-15T06:29:19.721Z,8.15
2022-09-15T06:31:49.660Z,9.15
2022-09-15T06:34:20.948Z,8.93
2022-09-15T06:36:50.753Z,8.40
2022-09-15T06:39:20.621Z,9.52
2022-09-15T06:42:02.363Z,9.15
2022-09-15T06:44:33.448Z,6.55
2022-09-15T06:47:03.706Z,6.43
2022-09-15T06:49:35.155Z,7.13
2022-09-15T06:52:05.252Z,7.47
2022-09-15T06:54:35.584Z,6.85
2022-09-15T06:57:05.880Z,7.18
2022-09-15T06:59:35.827Z,8.10
2022-09-15T07:02:05.853Z,8.18
2022-09-15T07:04:38.727Z,7.00
2022-09-15T07:07:08.600Z,6.30
2022-09-15T07:09:41.261Z,5.78
2022-09-15T07:12:11.118Z,4.70
2022-09-15T07:14:40.833Z,4.72
2022-09-15T07:17:10.679Z,9.15
2022-09-15T07:19:43.192Z,5.05
2022-09-15T07:22:13.374Z,5.28
2022-09-15T07:24:43.162Z,5.40
2022-09-15T07:27:12.960Z,5.53
2022-09-15T07:29:43.052Z,6.68
2022-09-15T07:32:12.803Z,5.95
2022-09-15T07:34:44.082Z,6.15
2022-09-15T07:37:16.289Z,8.65
2022-09-15T07:39:48.093Z,6.15
2022-09-15T07:42:18.053Z,6.65
2022-09-15T07:44:47.810Z,6.00
2022-09-15T07:47:17.654Z,5.15
2022-09-15T07:49:50.428Z,4.90
2022-09-15T07:52:20.389Z,4.30
2022-09-15T07:54:50.246Z,4.63
2022-09-15T07:57:20.087Z,4.85
2022-09-15T07:59:49.962Z,5.40
2022-09-15T08:02:21.527Z,4.22
2022-09-15T08:04:53.132Z,4.65
2022-09-15T08:07:22.977Z,4.75
2022-09-15T08:09:53.151Z,4.35
2022-09-15T08:12:33.055Z,3.58
2022-09-15T08:15:09.653Z,4.65
2022-09-15T08:17:39.719Z,3.75
2022-09-15T08:20:12.377Z,3.45
2022-09-15T08:22:42.649Z,3.15
2022-09-15T08:25:13.117Z,3.03
2022-09-15T08:27:42.904Z,3.35
2022-09-15T08:30:14.012Z,3.40
2022-09-15T08:32:44.064Z,3.42
2022-09-15T08:35:16.040Z,4.95
2022-09-15T08:37:46.229Z,3.10
2022-09-15T08:40:18.912Z,2.85
2022-09-15T08:42:51.032Z,3.27
2022-09-15T08:45:26.605Z,2.75
2022-09-15T08:48:00.327Z,2.67
2022-09-15T08:50:38.847Z,3.35
2022-09-15T08:53:13.198Z,3.42
2022-09-15T08:55:48.967Z,2.92
2022-09-15T08:58:20.926Z,2.90
2022-09-15T09:00:55.924Z,3.10
2022-09-15T09:03:50.237Z,3.10
2022-09-15T09:09:09.836Z,3.10
2022-09-15T09:12:06.545Z,3.85
2022-09-15T09:14:48.143Z,3.15
2022-09-15T09:17:32.424Z,2.85
2022-09-15T09:20:23.282Z,2.38
2022-09-15T09:22:55.819Z,3.25
2022-09-15T09:25:27.957Z,2.92
2022-09-15T09:27:59.456Z,2.33
2022-09-15T09:30:33.425Z,3.00
2022-09-15T09:33:26.505Z,2.60
2022-09-15T09:35:59.419Z,2.83
2022-09-15T09:38:33.684Z,4.30
2022-09-15T09:41:06.697Z,5.00
2022-09-15T09:43:37.903Z,3.47
2022-09-15T09:46:15.292Z,2.85
2022-09-15T09:48:49.250Z,3.15
2022-09-15T09:51:33.614Z,3.65
2022-09-15T09:54:16.461Z,3.38
2022-09-15T09:56:46.578Z,2.55
2022-09-15T09:59:35.553Z,3.38
2022-09-15T10:02:16.830Z,2.63
2022-09-15T10:04:48.600Z,2.30
2022-09-15T10:07:20.360Z,2.95
2022-09-15T10:09:54.609Z,3.00
2022-09-15T10:12:32.327Z,2.60
2022-09-15T10:15:05.318Z,2.67
2022-09-15T10:17:43.897Z,2.77
2022-09-15T10:20:28.371Z,2.10
2022-09-15T10:23:05.040Z,2.35
2022-09-15T10:28:29.439Z,2.63
2022-09-15T10:31:05.036Z,2.67
2022-09-15T10:33:36.340Z,2.65
2022-09-15T10:36:08.868Z,2.78
2022-09-15T10:38:43.261Z,2.83
2022-09-15T10:41:37.714Z,3.28
2022-09-15T10:44:35.304Z,3.22
2022-09-15T10:47:18.839Z,3.28
2022-09-15T10:50:01.855Z,3.25
2022-09-15T10:52:43.563Z,2.97
2022-09-15T10:55:52.827Z,3.20
2022-09-15T10:58:36.846Z,3.17
2022-09-15T11:01:33.374Z,3.05
2022-09-15T11:04:38.641Z,3.05
2022-09-15T11:07:15.868Z,4.53
2022-09-15T11:09:51.587Z,3.83
2022-09-15T11:12:37.711Z,4.22
2022-09-15T11:15:22.767Z,5.63
2022-09-15T11:18:12.439Z,5.55
2022-09-15T11:21:02.835Z,10.00
2022-09-15T11:23:36.229Z,4.45
2022-09-15T11:26:11.014Z,6.72
2022-09-15T11:28:45.067Z,5.38
2022-09-15T11:31:22.850Z,3.45
2022-09-15T11:33:58.218Z,4.60
2022-09-15T11:36:33.819Z,4.78
2022-09-15T11:39:12.705Z,3.03
2022-09-15T11:41:49.727Z,2.92
2022-09-15T11:44:26.399Z,3.03
2022-09-15T11:47:17.005Z,2.90
2022-09-15T11:49:51.630Z,3.78
2022-09-15T11:52:47.369Z,3.85
2022-09-15T11:55:26.112Z,3.70
2022-09-15T11:58:04.434Z,3.10
2022-09-15T12:00:39.906Z,2.85
2022-09-15T12:03:19.513Z,2.67
2022-09-15T12:05:53.178Z,3.10
2022-09-15T12:08:32.126Z,2.65
2022-09-15T12:11:07.101Z,2.90
2022-09-15T12:13:38.047Z,2.75
2022-09-15T12:16:09.971Z,2.80
2022-09-15T12:18:47.271Z,2.60
2022-09-15T12:21:23.840Z,3.00
2022-09-15T12:24:01.212Z,2.90
2022-09-15T12:26:34.294Z,2.63
2022-09-15T12:31:38.112Z,3.42
2022-09-15T12:34:36.260Z,3.20
2022-09-15T12:37:12.580Z,5.68
2022-09-15T12:39:43.660Z,2.78
2022-09-15T12:42:20.413Z,3.10
2022-09-15T12:44:56.231Z,2.45
2022-09-15T12:47:31.837Z,4.13
2022-09-15T12:50:21.157Z,4.80
2022-09-15T12:52:53.619Z,10.10
2022-09-15T12:55:26.872Z,4.70
2022-09-15T12:58:00.183Z,4.45
2022-09-15T13:00:45.592Z,3.58
2022-09-15T13:03:30.846Z,4.60
2022-09-15T13:06:21.821Z,3.70
2022-09-15T13:08:54.511Z,4.13
2022-09-15T13:11:38.743Z,4.40
2022-09-15T13:14:16.350Z,3.45
2022-09-15T13:16:53.848Z,3.70
2022-09-15T13:19:31.181Z,8.15
2022-09-15T13:22:07.654Z,5.32
2022-09-15T13:24:47.744Z,3.97
2022-09-15T13:27:22.105Z,3.78
2022-09-15T13:29:59.130Z,3.80
2022-09-15T13:32:41.095Z,3.67
2022-09-15T13:35:37.199Z,3.60
2022-09-15T13:38:52.416Z,4.00
2022-09-15T13:41:44.381Z,3.72
2022-09-15T13:44:55.737Z,5.32
2022-09-15T13:47:35.146Z,4.45
2022-09-15T13:50:14.840Z,4.40
2022-09-15T13:53:07.546Z,4.88
2022-09-15T13:55:42.529Z,4.25
2022-09-15T14:01:07.809Z,4.32
2022-09-15T14:03:43.721Z,4.32
2022-09-15T14:06:17.863Z,4.40
2022-09-15T14:08:51.748Z,4.10
2022-09-15T14:11:31.313Z,4.28
2022-09-15T14:14:01.636Z,3.95
2022-09-15T14:16:35.219Z,4.20
2022-09-15T14:19:31.159Z,5.13
2022-09-15T14:22:01.685Z,4.78
2022-09-15T14:24:33.020Z,4.90
2022-09-15T14:27:11.868Z,4.78
2022-09-15T14:29:42.802Z,5.40
2022-09-15T14:32:15.660Z,5.03
2022-09-15T14:37:27.578Z,4.95
2022-09-15T14:39:59.717Z,5.53
2022-09-15T14:42:36.079Z,4.90
2022-09-15T14:48:16.949Z,4.70
2022-09-15T14:50:55.420Z,4.28
2022-09-15T14:53:27.927Z,5.15
2022-09-15T14:56:07.794Z,4.78
2022-09-15T14:58:44.514Z,4.70
2022-09-15T15:01:17.998Z,5.10
2022-09-15T15:06:28.846Z,5.15
2022-09-15T15:09:04.700Z,4.63
2022-09-15T15:11:37.532Z,5.00
2022-09-15T15:14:11.441Z,4.28
2022-09-15T15:16:52.377Z,4.88
2022-09-15T15:19:33.181Z,4.13
2022-09-15T15:22:17.163Z,4.82
2022-09-15T15:24:50.361Z,7.10
2022-09-15T15:30:34.714Z,4.70
2022-09-15T15:33:06.671Z,4.25
2022-09-15T15:35:37.071Z,5.28
2022-09-15T15:38:15.201Z,4.93
2022-09-15T15:40:46.875Z,4.13
2022-09-15T15:43:24.422Z,5.20
2022-09-15T15:46:00.833Z,4.97
2022-09-15T15:48:36.890Z,5.10
2022-09-15T15:51:09.393Z,4.60
2022-09-15T15:53:40.110Z,5.10
2022-09-15T15:56:09.869Z,5.18
2022-09-15T15:58:39.856Z,5.18
2022-09-15T16:01:12.955Z,4.82
2022-09-15T16:03:42.797Z,5.03
2022-09-15T16:06:13.319Z,5.05
2022-09-15T16:08:45.342Z,5.35
2022-09-15T16:11:17.008Z,5.90
2022-09-15T16:13:48.319Z,4.97
2022-09-15T16:16:22.073Z,6.55
2022-09-15T16:18:52.070Z,5.13
2022-09-15T16:21:26.952Z,6.00
2022-09-15T16:23:56.743Z,5.60
2022-09-15T16:26:26.669Z,6.05
2022-09-15T16:28:58.347Z,6.47
2022-09-15T16:31:29.982Z,5.20
2022-09-15T16:34:00.751Z,6.40
2022-09-15T16:36:32.073Z,6.55
2022-09-15T16:39:01.873Z,6.70
2022-09-15T16:41:33.884Z,6.40
2022-09-15T16:44:15.408Z,5.88
2022-09-15T16:46:47.121Z,5.30
2022-09-15T16:49:16.907Z,6.60
2022-09-15T16:51:46.658Z,5.88
2022-09-15T16:54:18.091Z,6.60
2022-09-15T16:56:48.571Z,7.00
2022-09-15T16:59:18.363Z,7.88
2022-09-15T17:01:49.481Z,8.07
2022-09-15T17:04:20.096Z,7.50
2022-09-15T17:06:50.070Z,7.13
2022-09-15T17:09:19.792Z,6.57
2022-09-15T17:11:49.893Z,6.45
2022-09-15T17:14:19.811Z,5.80
2022-09-15T17:16:52.943Z,5.65
2022-09-15T17:19:22.719Z,5.75
2022-09-15T17:21:53.416Z,6.07
2022-09-15T17:24:23.316Z,6.03
2022-09-15T17:26:53.337Z,6.80
2022-09-15T17:29:24.756Z,5.85
2022-09-15T17:31:55.832Z,7.07
2022-09-15T17:34:26.025Z,6.32
2022-09-15T17:36:56.021Z,7.03
2022-09-15T17:39:26.050Z,6.70
2022-09-15T17:41:55.894Z,6.55
2022-09-15T17:44:25.883Z,6.50
2022-09-15T17:46:57.369Z,7.00
2022-09-15T17:49:27.473Z,6.68
2022-09-15T17:51:57.260Z,6.78
2022-09-15T17:54:27.188Z,6.95
2022-09-15T17:56:57.051Z,6.30
2022-09-15T17:59:26.776Z,7.40
2022-09-15T18:01:58.042Z,8.23
2022-09-15T18:04:27.906Z,6.63
2022-09-15T18:06:57.648Z,6.43
2022-09-15T18:09:27.448Z,6.57
2022-09-15T18:11:57.453Z,7.18
2022-09-15T18:14:27.194Z,6.18
2022-09-15T18:16:58.359Z,6.28
2022-09-15T18:19:28.204Z,6.13
2022-09-15T18:21:58.111Z,5.88
2022-09-15T18:24:28.459Z,5.88
2022-09-15T18:26:58.380Z,6.70
2022-09-15T18:29:28.291Z,5.80
2022-09-15T18:32:03.014Z,6.03
2022-09-15T18:34:33.017Z,5.38
2022-09-15T18:37:03.304Z,5.82
2022-09-15T18:39:33.120Z,7.03
2022-09-15T18:42:03.018Z,5.88
2022-09-15T18:44:33.058Z,7.40
2022-09-15T18:47:04.323Z,7.05
2022-09-15T18:49:34.218Z,5.70
2022-09-15T18:52:05.206Z,5.90
2022-09-15T18:54:37.354Z,5.85
2022-09-15T18:57:07.248Z,5.28
2022-09-15T18:59:37.351Z,5.32
2022-09-15T19:02:08.800Z,5.93
2022-09-15T19:04:40.761Z,5.43
2022-09-15T19:07:11.378Z,5.80
2022-09-15T19:09:41.296Z,5.53
2022-09-15T19:12:11.251Z,5.68
2022-09-15T19:14:46.000Z,6.10
2022-09-15T19:17:18.209Z,5.53
2022-09-15T19:19:48.827Z,5.28
2022-09-15T19:22:18.769Z,6.03
2022-09-15T19:24:48.784Z,6.97
2022-09-15T19:27:19.003Z,6.82
2022-09-15T19:29:49.625Z,5.47
2022-09-15T19:32:21.229Z,5.57
2022-09-15T19:34:51.042Z,5.68
2022-09-15T19:37:23.023Z,5.25
2022-09-15T19:39:52.886Z,5.20
2022-09-15T19:42:23.755Z,4.68
2022-09-15T19:44:54.310Z,5.20
2022-09-15T19:47:26.124Z,5.90
2022-09-15T19:49:55.920Z,6.72
2022-09-15T19:52:26.282Z,5.65
2022-09-15T19:54:56.123Z,5.28
2022-09-15T19:57:26.975Z,5.28
2022-09-15T19:59:56.851Z,5.75
2022-09-15T20:02:28.100Z,5.80
2022-09-15T20:04:58.901Z,5.63
2022-09-15T20:07:28.990Z,5.25
2022-09-15T20:09:58.877Z,5.40
2022-09-15T20:12:28.646Z,6.10
2022-09-15T20:14:59.244Z,5.85
2022-09-15T20:17:30.471Z,6.15
2022-09-15T20:20:00.994Z,5.70
2022-09-15T20:22:31.118Z,5.75
2022-09-15T20:25:01.117Z,5.75
2022-09-15T20:27:31.120Z,5.57
2022-09-15T20:30:01.089Z,5.43
2022-09-15T20:32:34.039Z,5.82
2022-09-15T20:35:04.392Z,5.70
2022-09-15T20:37:37.475Z,4.95
2022-09-15T20:40:09.485Z,6.15
2022-09-15T20:42:39.499Z,5.53
2022-09-15T20:45:10.449Z,6.55
2022-09-15T20:47:41.658Z,5.28
2022-09-15T20:50:11.910Z,6.75
2022-09-15T20:52:41.974Z,6.00
2022-09-15T20:55:11.751Z,5.60
2022-09-15T20:57:41.598Z,5.88
2022-09-15T21:00:12.556Z,5.70
2022-09-15T21:02:43.733Z,5.57
2022-09-15T21:05:13.407Z,5.97
2022-09-15T21:07:43.456Z,5.68
2022-09-15T21:10:13.621Z,5.68
2022-09-15T21:12:43.611Z,6.22
2022-09-15T21:15:13.367Z,6.75
2022-09-15T21:17:44.554Z,5.63
2022-09-15T21:20:14.901Z,6.10
2022-09-15T21:22:44.752Z,6.05
2022-09-15T21:25:14.650Z,5.68
2022-09-15T21:27:46.233Z,5.95
2022-09-15T21:30:16.936Z,5.63
2022-09-15T21:32:48.179Z,5.40
2022-09-15T21:35:19.043Z,5.88
2022-09-15T21:37:48.785Z,5.43
2022-09-15T21:40:18.665Z,5.95
2022-09-15T21:42:48.447Z,5.85
2022-09-15T21:45:18.198Z,5.45
2022-09-15T21:47:49.739Z,5.63
2022-09-15T21:50:19.560Z,5.53
2022-09-15T21:52:49.231Z,5.78
2022-09-15T21:55:18.953Z,5.85
2022-09-15T21:57:48.928Z,5.28
2022-09-15T22:00:19.088Z,5.95
2022-09-15T22:02:53.362Z,5.20
2022-09-15T22:05:23.447Z,5.25
2022-09-15T22:07:53.187Z,4.75
2022-09-15T22:10:23.494Z,4.80
2022-09-15T22:12:53.535Z,4.82
2022-09-15T22:15:23.931Z,5.38
2022-09-15T22:17:55.055Z,5.38
2022-09-15T22:20:25.714Z,5.03
2022-09-15T22:22:56.119Z,4.82
2022-09-15T22:25:26.475Z,4.63
2022-09-15T22:27:56.214Z,5.20
2022-09-15T22:30:26.119Z,5.35
2022-09-15T22:32:57.329Z,5.03
2022-09-15T22:35:27.470Z,5.70
2022-09-15T22:37:58.103Z,6.35
2022-09-15T22:40:28.623Z,6.15
2022-09-15T22:42:59.431Z,5.25
2022-09-15T22:45:29.237Z,4.82
2022-09-15T22:48:00.418Z,5.00
2022-09-15T22:50:30.295Z,4.93
2022-09-15T22:53:02.559Z,5.00
2022-09-15T22:55:33.614Z,5.00
2022-09-15T22:58:03.397Z,4.95
2022-09-15T23:00:33.705Z,4.55
2022-09-15T23:03:05.017Z,5.25
2022-09-15T23:05:35.875Z,4.68
2022-09-15T23:08:05.601Z,4.35
2022-09-15T23:10:35.378Z,5.38
2022-09-15T23:13:05.398Z,4.82
2022-09-15T23:15:35.782Z,4.40
2022-09-15T23:18:07.074Z,4.88
2022-09-15T23:20:39.477Z,4.60
2022-09-15T23:23:10.577Z,5.38
2022-09-15T23:25:40.708Z,4.70
2022-09-15T23:28:10.489Z,4.60
2022-09-15T23:30:40.406Z,5.00
2022-09-15T23:33:11.586Z,5.20
2022-09-15T23:35:41.343Z,4.90
2022-09-15T23:38:11.165Z,5.25
2022-09-15T23:40:42.757Z,4.25
2022-09-15T23:43:13.857Z,4.82
2022-09-15T23:45:44.405Z,4.90
2022-09-15T23:48:15.891Z,4.78
2022-09-15T23:50:46.122Z,4.90
2022-09-15T23:53:15.847Z,4.70
2022-09-15T23:55:45.584Z,4.43
2022-09-15T23:58:15.490Z,5.13
